Brookings, OR

4:40 AM PDT on August 30, 2016 (GMT -0700)
Brookings | | Change Station

Elev 459 ft 42.07 °N, 124.29 °W | Updated 44 minutes ago

Overcast
Overcast
56 °F
Feels Like 56 °F
N
4
Wind Variable Wind from ESE

Today
High -- | Low -- °F
--% Chance of Precip.
Yesterday
High -- | Low -- °F
Precip. -- in
Pressure 30.15 in
Visibility 10.0 miles
Clouds Overcast 2400 ft
Dew Point 52 °F
Humidity 87%
Rainfall 0.00 in
Snow Depth Not available.
6:41 AM 7:53 PM
Waning Crescent, 4% visible
METAR KBOK 301056Z AUTO 12003KT 10SM OVC024 13/11 A3010 RMK AO2 SLP208 T01330111
Pressure 30.15 in
Visibility 10.0 miles
Clouds Overcast 2400 ft
Dew Point 52 °F
Humidity 87%
Rainfall 0.00 in
Snow Depth Not available.
6:41 AM 7:53 PM
Waning Crescent, 4% visible
METAR KBOK 301056Z AUTO 12003KT 10SM OVC024 13/11 A3010 RMK AO2 SLP208 T01330111

10-Day Weather Forecast

Almanac

Astronomy

Aug. 30, 2016 Rise Set
Actual Time
Civil Twilight
Nautical Twilight
Astronomical Twilight
Moon
Length of Visible Light
Length of Day
Tomorrow will be .
, % of the Moon is Illuminated

Today's Extremes

State Highs State Lows

Community

WunderPhotos

Upload Photos

1,935,814 photos uploaded!

WunderBlog® & News

Nearby

Air Quality

  Air Quality AQ Index Pollutant
Not available.

Snow Depth

Station Depth Elevation

Earthquake Activity

City Distance Mag. Time & Date
Minimum magnitude displayed is 2.5.

Coastal Water Temperatures

Place Temperature

Stations

Nearby Weather Stations

Station Location Temp. Windchill Dew Point Humidity Wind Precip. Elev Updated Type
                   

Watches & Warnings

There are currently no watches in effect.